createdAt,value
2023-03-11T00:00:34.415Z,5.65
2023-03-11T00:03:02.957Z,5.15
2023-03-11T00:05:33.593Z,5.05
2023-03-11T00:08:01.182Z,5.13
2023-03-11T00:10:30.878Z,4.98
2023-03-11T00:12:59.050Z,4.92
2023-03-11T00:15:26.740Z,5.20
2023-03-11T00:17:54.086Z,5.14
2023-03-11T00:20:27.730Z,4.87
2023-03-11T00:22:55.304Z,4.74
2023-03-11T00:25:24.552Z,4.98
2023-03-11T00:27:51.325Z,5.12
2023-03-11T00:30:19.528Z,5.19
2023-03-11T00:32:48.737Z,5.33
2023-03-11T00:35:18.941Z,5.30
2023-03-11T00:37:47.315Z,5.30
2023-03-11T00:40:20.184Z,5.41
2023-03-11T00:42:47.091Z,5.21
2023-03-11T00:45:14.699Z,4.98
2023-03-11T00:47:42.176Z,5.10
2023-03-11T00:50:12.192Z,5.29
2023-03-11T00:52:38.905Z,5.28
2023-03-11T00:55:06.667Z,5.03
2023-03-11T00:57:34.556Z,5.22
2023-03-11T01:00:01.245Z,5.41
2023-03-11T01:02:28.038Z,5.32
2023-03-11T01:04:56.545Z,5.47
2023-03-11T01:07:23.458Z,5.35
2023-03-11T01:09:50.135Z,5.30
2023-03-11T01:12:16.875Z,5.19
2023-03-11T01:14:43.676Z,5.20
2023-03-11T01:17:10.397Z,5.24
2023-03-11T01:19:37.075Z,5.28
2023-03-11T01:22:03.945Z,5.23
2023-03-11T01:24:30.593Z,5.06
2023-03-11T01:26:57.262Z,5.04
2023-03-11T01:29:24.804Z,4.98
2023-03-11T01:31:51.578Z,4.99
2023-03-11T01:34:18.331Z,4.94
2023-03-11T01:36:44.994Z,4.83
2023-03-11T01:39:11.870Z,4.67
2023-03-11T01:41:38.549Z,4.84
2023-03-11T01:44:05.772Z,4.84
2023-03-11T01:47:00.044Z,4.84
2023-03-11T01:49:32.754Z,4.88
2023-03-11T01:52:07.775Z,4.94
2023-03-11T01:54:41.446Z,4.83
2023-03-11T01:57:13.407Z,4.71
2023-03-11T01:59:47.208Z,4.70
2023-03-11T02:02:25.376Z,4.84
2023-03-11T02:04:53.337Z,4.80
2023-03-11T02:07:22.967Z,4.72
2023-03-11T02:09:49.763Z,4.56
2023-03-11T02:12:16.683Z,4.52
2023-03-11T02:14:48.351Z,4.65
2023-03-11T02:17:15.520Z,4.43
2023-03-11T02:20:07.557Z,4.49
2023-03-11T02:22:34.835Z,4.35
2023-03-11T02:25:11.812Z,4.45
2023-03-11T02:27:43.419Z,4.39
2023-03-11T02:30:12.985Z,4.40
2023-03-11T02:32:42.928Z,4.51
2023-03-11T02:35:09.881Z,4.46
2023-03-11T02:37:36.871Z,4.39
2023-03-11T02:40:24.752Z,4.42
2023-03-11T02:42:58.181Z,4.40
2023-03-11T02:45:26.538Z,4.43
2023-03-11T02:47:55.608Z,4.58
2023-03-11T02:50:22.850Z,4.35
2023-03-11T02:52:50.165Z,4.51
2023-03-11T02:55:18.088Z,4.33
2023-03-11T02:57:45.191Z,4.49
2023-03-11T03:00:15.737Z,4.42
2023-03-11T03:02:52.115Z,4.43
2023-03-11T03:05:20.728Z,4.41
2023-03-11T03:07:49.142Z,4.40
2023-03-11T03:10:18.789Z,4.32
2023-03-11T03:12:45.981Z,4.26
2023-03-11T03:15:12.782Z,4.39
2023-03-11T03:17:39.651Z,4.44
2023-03-11T03:20:12.561Z,4.30
2023-03-11T03:22:42.847Z,4.47
2023-03-11T03:25:11.723Z,4.58
2023-03-11T03:27:38.976Z,4.61
2023-03-11T03:30:08.189Z,4.58
2023-03-11T03:32:35.691Z,4.57
2023-03-11T03:35:04.670Z,4.48
2023-03-11T03:38:01.144Z,4.41
2023-03-11T03:40:27.918Z,4.47
2023-03-11T03:42:57.094Z,4.43
2023-03-11T03:45:24.479Z,4.45
2023-03-11T03:47:53.035Z,4.48
2023-03-11T03:50:22.013Z,4.48
2023-03-11T03:52:50.554Z,4.44
2023-03-11T03:55:17.594Z,4.45
2023-03-11T03:57:44.260Z,4.42
2023-03-11T04:00:13.518Z,4.40
2023-03-11T04:02:46.218Z,4.41
2023-03-11T04:05:21.942Z,4.34
2023-03-11T04:07:48.725Z,4.17
2023-03-11T04:10:15.709Z,4.24
2023-03-11T04:12:43.183Z,4.23
2023-03-11T04:15:10.584Z,4.22
2023-03-11T04:17:38.762Z,4.14
2023-03-11T04:20:10.362Z,4.17
2023-03-11T04:22:37.118Z,4.32
2023-03-11T04:25:04.979Z,4.20
2023-03-11T04:27:32.632Z,4.11
2023-03-11T04:30:00.219Z,4.12
2023-03-11T04:32:27.055Z,4.17
2023-03-11T04:34:53.736Z,4.27
2023-03-11T04:37:20.515Z,4.10
2023-03-11T04:39:47.478Z,4.30
2023-03-11T04:42:14.240Z,4.14
2023-03-11T04:44:43.312Z,4.31
2023-03-11T04:47:10.299Z,4.41
2023-03-11T04:49:37.180Z,4.44
2023-03-11T04:52:04.254Z,4.38
2023-03-11T04:54:30.978Z,4.46
2023-03-11T04:56:57.712Z,4.46
2023-03-11T04:59:24.744Z,4.47
2023-03-11T05:01:52.270Z,4.47
2023-03-11T05:04:19.339Z,4.39
2023-03-11T05:06:46.330Z,4.38
2023-03-11T05:09:14.087Z,4.34
2023-03-11T05:11:41.073Z,4.44
2023-03-11T05:14:08.506Z,4.41
2023-03-11T05:16:35.580Z,4.38
2023-03-11T05:19:23.740Z,4.38
2023-03-11T05:21:50.676Z,4.38
2023-03-11T05:24:17.366Z,4.29
2023-03-11T05:26:44.078Z,4.26
2023-03-11T05:29:10.837Z,4.24
2023-03-11T05:31:37.632Z,4.21
2023-03-11T05:34:04.453Z,4.19
2023-03-11T05:36:31.162Z,4.16
2023-03-11T05:38:58.064Z,4.17
2023-03-11T05:41:24.885Z,4.23
2023-03-11T05:43:52.270Z,4.26
2023-03-11T05:46:20.539Z,4.37
2023-03-11T05:48:47.369Z,4.44
2023-03-11T05:51:14.707Z,4.50
2023-03-11T05:53:48.457Z,4.56
2023-03-11T05:56:21.864Z,4.60
2023-03-11T05:58:49.780Z,4.65
2023-03-11T06:01:19.466Z,4.66
2023-03-11T06:03:46.787Z,4.70
2023-03-11T06:06:14.231Z,4.80
2023-03-11T06:08:45.863Z,4.85
2023-03-11T06:11:12.968Z,4.85
2023-03-11T06:13:40.059Z,4.82
2023-03-11T06:16:09.534Z,4.81
2023-03-11T06:18:36.612Z,4.85
2023-03-11T06:21:05.067Z,4.94
2023-03-11T06:23:32.980Z,5.02
2023-03-11T06:26:02.734Z,5.17
2023-03-11T06:28:32.179Z,5.39
2023-03-11T06:31:10.924Z,5.52
2023-03-11T06:33:37.929Z,5.65
2023-03-11T06:36:06.092Z,5.85
2023-03-11T06:38:36.276Z,6.11
2023-03-11T06:41:05.805Z,6.55
2023-03-11T06:43:35.503Z,7.15
2023-03-11T06:46:11.392Z,7.49
2023-03-11T06:48:39.378Z,8.13
2023-03-11T06:51:06.255Z,8.67
2023-03-11T06:53:33.768Z,9.17
2023-03-11T06:56:05.112Z,9.44
2023-03-11T06:58:37.259Z,9.63
2023-03-11T07:01:10.754Z,10.06
2023-03-11T07:03:38.751Z,10.61
2023-03-11T07:06:06.775Z,11.13
2023-03-11T07:08:33.943Z,11.91
2023-03-11T07:11:06.706Z,12.92
2023-03-11T07:13:34.695Z,13.62
2023-03-11T07:16:07.613Z,14.55
2023-03-11T07:18:35.549Z,15.33
2023-03-11T07:21:04.181Z,15.87
2023-03-11T07:23:30.924Z,16.34
2023-03-11T07:25:57.641Z,17.34
2023-03-11T07:28:25.829Z,18.10
2023-03-11T07:30:53.162Z,18.69
2023-03-11T07:33:21.564Z,19.66
2023-03-11T07:35:49.295Z,18.98
2023-03-11T07:38:17.906Z,19.72
2023-03-11T07:40:44.707Z,20.56
2023-03-11T07:43:11.628Z,21.31
2023-03-11T07:45:38.312Z,21.01
2023-03-11T07:48:05.392Z,21.01
2023-03-11T07:50:32.074Z,21.25
2023-03-11T07:52:58.777Z,22.42
2023-03-11T07:55:25.460Z,22.21
2023-03-11T07:57:52.162Z,23.54
2023-03-11T08:00:19.708Z,24.13
2023-03-11T08:02:46.534Z,24.86
2023-03-11T08:05:13.436Z,24.31
2023-03-11T08:07:40.076Z,24.67
2023-03-11T08:10:07.263Z,23.93
2023-03-11T08:12:34.056Z,24.39
2023-03-11T08:15:00.792Z,24.78
2023-03-11T08:17:27.473Z,24.55
2023-03-11T08:19:54.116Z,24.76
2023-03-11T08:22:20.860Z,25.86
2023-03-11T08:24:51.805Z,25.69
2023-03-11T08:27:18.828Z,26.58
2023-03-11T08:29:45.518Z,25.44
2023-03-11T08:32:12.257Z,25.96
2023-03-11T08:34:39.522Z,27.29
2023-03-11T08:37:06.788Z,28.04
2023-03-11T08:39:33.490Z,27.94
2023-03-11T08:42:00.595Z,27.99
2023-03-11T08:44:27.297Z,27.99
2023-03-11T08:46:54.258Z,26.86
2023-03-11T08:49:20.960Z,27.33
2023-03-11T08:51:47.588Z,27.95
2023-03-11T08:54:14.303Z,29.55
2023-03-11T08:56:40.990Z,27.68
2023-03-11T08:59:08.537Z,26.63
2023-03-11T09:01:35.228Z,27.04
2023-03-11T09:04:01.945Z,24.84
2023-03-11T09:06:30.434Z,25.47
2023-03-11T09:08:57.720Z,27.31
2023-03-11T09:11:24.811Z,27.29
2023-03-11T09:13:51.893Z,28.23
2023-03-11T09:16:21.431Z,27.21
2023-03-11T09:18:48.725Z,28.19
2023-03-11T09:21:15.504Z,27.32
2023-03-11T09:23:44.331Z,25.82
2023-03-11T09:26:12.503Z,24.41
2023-03-11T09:28:40.215Z,22.50
2023-03-11T09:31:07.232Z,24.89
2023-03-11T09:33:39.648Z,25.54
2023-03-11T09:36:07.319Z,28.76
2023-03-11T09:38:34.258Z,29.95
2023-03-11T09:41:23.104Z,32.12
2023-03-11T09:43:55.835Z,30.59
2023-03-11T09:46:49.887Z,31.20
2023-03-11T09:49:27.895Z,30.99
2023-03-11T09:52:15.603Z,31.60
2023-03-11T09:54:52.314Z,33.37
2023-03-11T09:57:26.611Z,32.52
2023-03-11T09:59:54.524Z,32.24
2023-03-11T10:02:26.649Z,33.22
2023-03-11T10:05:00.946Z,33.27
2023-03-11T10:07:39.821Z,31.80
2023-03-11T10:10:11.266Z,28.55
2023-03-11T10:12:52.133Z,25.99
2023-03-11T10:15:39.620Z,22.91
2023-03-11T10:18:28.018Z,20.79
2023-03-11T10:20:54.611Z,19.01
2023-03-11T10:23:47.229Z,17.65
2023-03-11T10:26:23.274Z,19.22
2023-03-11T10:29:00.090Z,21.86
2023-03-11T10:31:32.910Z,24.26
2023-03-11T10:34:45.210Z,26.41
2023-03-11T10:37:18.635Z,29.97
2023-03-11T10:39:50.564Z,30.17
2023-03-11T10:42:22.503Z,30.63
2023-03-11T10:44:51.070Z,30.54
2023-03-11T10:47:24.311Z,30.56
2023-03-11T10:49:52.381Z,31.94
2023-03-11T10:52:20.060Z,31.75
2023-03-11T10:54:58.548Z,34.27
2023-03-11T10:57:29.071Z,34.31
2023-03-11T10:59:58.319Z,33.07
2023-03-11T11:02:42.084Z,32.64
2023-03-11T11:05:16.094Z,31.33
2023-03-11T11:07:44.927Z,27.37
2023-03-11T11:10:11.527Z,23.06
2023-03-11T11:13:02.472Z,20.11
2023-03-11T11:15:37.442Z,18.65
2023-03-11T11:18:19.698Z,17.76
2023-03-11T11:21:06.941Z,18.70
2023-03-11T11:23:41.892Z,22.70
2023-03-11T11:26:22.137Z,23.29
2023-03-11T11:29:27.271Z,26.01
2023-03-11T11:32:19.101Z,29.44
2023-03-11T11:34:59.715Z,26.96
2023-03-11T11:37:31.807Z,29.14
2023-03-11T11:40:11.167Z,28.30
2023-03-11T11:42:41.210Z,29.17
2023-03-11T11:45:22.768Z,28.79
2023-03-11T11:47:53.993Z,29.99
2023-03-11T11:50:35.990Z,32.27
2023-03-11T11:53:15.086Z,31.98
2023-03-11T11:55:47.692Z,31.33
2023-03-11T11:58:14.761Z,30.94
2023-03-11T12:01:05.679Z,32.26
2023-03-11T12:03:44.358Z,30.51
2023-03-11T12:06:25.087Z,31.71
2023-03-11T12:09:14.660Z,33.28
2023-03-11T12:11:56.107Z,33.67
2023-03-11T12:14:45.782Z,32.90
2023-03-11T12:17:14.883Z,31.72
2023-03-11T12:19:46.025Z,29.67
2023-03-11T12:22:38.878Z,29.24
2023-03-11T12:25:27.228Z,29.00
2023-03-11T12:28:09.215Z,28.39
2023-03-11T12:30:43.946Z,28.41
2023-03-11T12:33:43.121Z,23.34
2023-03-11T12:36:40.662Z,20.77
2023-03-11T12:39:19.489Z,20.03
2023-03-11T12:41:46.522Z,20.37
2023-03-11T12:44:30.763Z,20.30
2023-03-11T12:47:15.343Z,19.99
2023-03-11T12:50:08.722Z,18.80
2023-03-11T12:52:53.468Z,18.67
2023-03-11T12:55:32.006Z,17.39
2023-03-11T12:58:11.470Z,17.16
2023-03-11T13:01:05.606Z,17.15
2023-03-11T13:03:51.066Z,16.70
2023-03-11T13:06:55.617Z,16.23
2023-03-11T13:09:25.110Z,16.18
2023-03-11T13:11:52.049Z,16.11
2023-03-11T13:14:28.737Z,15.78
2023-03-11T13:16:56.419Z,16.09
2023-03-11T13:19:26.096Z,15.83
2023-03-11T13:21:53.790Z,16.23
2023-03-11T13:24:25.799Z,16.58
2023-03-11T13:27:04.952Z,16.85
2023-03-11T13:29:31.792Z,16.64
2023-03-11T13:32:36.432Z,16.63
2023-03-11T13:35:05.778Z,16.34
2023-03-11T13:37:44.217Z,16.51
2023-03-11T13:40:26.423Z,16.37
2023-03-11T13:42:58.023Z,16.57
2023-03-11T13:45:35.687Z,16.68
2023-03-11T13:48:31.280Z,17.27
2023-03-11T13:51:13.161Z,17.38
2023-03-11T13:53:47.490Z,16.76
2023-03-11T13:56:29.208Z,16.42
2023-03-11T13:59:17.451Z,16.61
2023-03-11T14:01:52.362Z,15.99
2023-03-11T14:04:26.426Z,15.82
2023-03-11T14:06:53.381Z,15.42
2023-03-11T14:09:22.982Z,15.50
2023-03-11T14:11:49.916Z,16.39
2023-03-11T14:14:43.436Z,16.17
2023-03-11T14:17:16.585Z,16.11
2023-03-11T14:20:12.253Z,16.23
2023-03-11T14:22:39.217Z,16.12
2023-03-11T14:25:10.147Z,15.77
2023-03-11T14:27:45.362Z,15.44
2023-03-11T14:30:20.407Z,15.40
2023-03-11T14:32:59.764Z,16.07
2023-03-11T14:35:26.917Z,16.00
2023-03-11T14:37:53.807Z,15.20
2023-03-11T14:40:37.621Z,15.57
2023-03-11T14:43:07.273Z,15.03
2023-03-11T14:45:38.899Z,14.63
2023-03-11T14:48:13.464Z,14.72
2023-03-11T14:50:42.678Z,15.23
2023-03-11T14:53:12.189Z,15.34
2023-03-11T14:55:40.501Z,15.46
2023-03-11T14:58:15.952Z,15.54
2023-03-11T15:00:59.656Z,15.59
2023-03-11T15:03:31.008Z,14.94
2023-03-11T15:06:08.534Z,15.26
2023-03-11T15:08:47.300Z,15.20
2023-03-11T15:11:13.851Z,15.20
2023-03-11T15:13:43.044Z,14.75
2023-03-11T15:16:34.732Z,15.04
2023-03-11T15:19:32.067Z,15.23
2023-03-11T15:22:21.643Z,14.42
2023-03-11T15:24:57.694Z,14.65
2023-03-11T15:27:33.003Z,14.44
2023-03-11T15:30:00.781Z,14.56
2023-03-11T15:32:41.289Z,14.33
2023-03-11T15:35:07.962Z,14.18
2023-03-11T15:37:35.125Z,14.18
2023-03-11T15:40:12.816Z,14.35
2023-03-11T15:42:39.577Z,14.54
2023-03-11T15:45:13.266Z,14.70
2023-03-11T15:47:40.550Z,14.58
2023-03-11T15:50:24.519Z,14.50
2023-03-11T15:52:56.648Z,14.54
2023-03-11T15:55:25.337Z,14.39
2023-03-11T15:58:05.550Z,14.36
2023-03-11T16:00:32.458Z,14.35
2023-03-11T16:02:59.185Z,14.24
2023-03-11T16:05:25.988Z,14.22
2023-03-11T16:07:52.640Z,14.15
2023-03-11T16:10:22.463Z,13.94
2023-03-11T16:12:49.150Z,13.77
2023-03-11T16:15:20.981Z,13.68
2023-03-11T16:17:50.389Z,13.54
2023-03-11T16:20:19.066Z,13.49
2023-03-11T16:22:47.492Z,13.65
2023-03-11T16:25:21.875Z,13.75
2023-03-11T16:27:51.012Z,13.69
2023-03-11T16:30:18.493Z,13.77
2023-03-11T16:32:45.202Z,13.52
2023-03-11T16:35:12.142Z,13.28
2023-03-11T16:37:39.737Z,12.97
2023-03-11T16:40:07.250Z,13.09
2023-03-11T16:42:33.924Z,12.82
2023-03-11T16:45:02.777Z,12.66
2023-03-11T16:47:30.514Z,12.64
2023-03-11T16:49:57.126Z,12.57
2023-03-11T16:52:23.898Z,12.49
2023-03-11T16:54:50.683Z,12.31
2023-03-11T16:57:17.376Z,12.29
2023-03-11T16:59:44.214Z,12.27
2023-03-11T17:02:12.174Z,12.09
2023-03-11T17:04:38.842Z,11.95
2023-03-11T17:07:06.980Z,11.74
2023-03-11T17:09:35.238Z,11.64
2023-03-11T17:12:02.624Z,11.59
2023-03-11T17:14:29.356Z,11.48
2023-03-11T17:16:56.027Z,11.45
2023-03-11T17:19:23.997Z,11.34
2023-03-11T17:21:51.468Z,11.29
2023-03-11T17:24:18.346Z,11.29
2023-03-11T17:26:44.990Z,11.12
2023-03-11T17:29:11.648Z,11.04
2023-03-11T17:31:38.380Z,10.99
2023-03-11T17:34:05.022Z,11.02
2023-03-11T17:36:31.786Z,10.92
2023-03-11T17:38:58.421Z,10.90
2023-03-11T17:41:25.126Z,10.83
2023-03-11T17:43:51.785Z,10.71
2023-03-11T17:46:20.382Z,10.73
2023-03-11T17:48:49.085Z,10.69
2023-03-11T17:51:18.982Z,10.61
2023-03-11T17:53:46.633Z,10.62
2023-03-11T17:56:15.995Z,10.65
2023-03-11T17:58:42.683Z,10.60
2023-03-11T18:01:20.336Z,10.56
2023-03-11T18:03:47.530Z,10.48
2023-03-11T18:06:15.487Z,10.43
2023-03-11T18:08:42.130Z,10.28
2023-03-11T18:11:11.406Z,10.23
2023-03-11T18:13:39.866Z,10.15
2023-03-11T18:16:09.524Z,10.11
2023-03-11T18:18:37.351Z,9.69
2023-03-11T18:21:06.188Z,9.61
2023-03-11T18:23:33.345Z,9.58
2023-03-11T18:26:04.580Z,9.46
2023-03-11T18:28:31.861Z,9.40
2023-03-11T18:31:18.284Z,9.43
2023-03-11T18:33:53.973Z,9.46
2023-03-11T18:36:26.990Z,9.40
2023-03-11T18:38:55.260Z,9.49
2023-03-11T18:41:22.177Z,9.30
2023-03-11T18:43:53.783Z,9.13
2023-03-11T18:46:20.590Z,9.00
2023-03-11T18:48:47.283Z,8.81
2023-03-11T18:51:14.115Z,8.64
2023-03-11T18:53:42.836Z,8.12
2023-03-11T18:56:13.760Z,7.87
2023-03-11T18:58:40.672Z,8.01
2023-03-11T19:01:14.119Z,8.04
2023-03-11T19:03:48.504Z,8.05
2023-03-11T19:06:16.516Z,8.09
2023-03-11T19:08:43.553Z,7.99
2023-03-11T19:11:19.917Z,7.91
2023-03-11T19:13:48.080Z,7.83
2023-03-11T19:16:21.544Z,7.85
2023-03-11T19:18:48.366Z,7.98
2023-03-11T19:21:16.240Z,8.13
2023-03-11T19:23:44.229Z,8.09
2023-03-11T19:26:11.030Z,8.05
2023-03-11T19:28:37.765Z,7.90
2023-03-11T19:31:05.399Z,7.94
2023-03-11T19:33:32.500Z,8.00
2023-03-11T19:36:01.778Z,8.06
2023-03-11T19:38:29.143Z,7.94
2023-03-11T19:41:11.091Z,7.69
2023-03-11T19:43:37.866Z,7.60
2023-03-11T19:46:06.346Z,7.83
2023-03-11T19:48:33.733Z,7.93
2023-03-11T19:51:02.288Z,8.02
2023-03-11T19:53:29.253Z,7.90
2023-03-11T19:55:57.462Z,7.86
2023-03-11T19:58:28.636Z,7.80
2023-03-11T20:00:58.071Z,7.61
2023-03-11T20:03:24.993Z,7.54
2023-03-11T20:05:52.528Z,7.49
2023-03-11T20:08:20.939Z,7.52
2023-03-11T20:10:50.246Z,7.54
2023-03-11T20:13:20.114Z,7.51
2023-03-11T20:15:46.971Z,7.47
2023-03-11T20:18:13.698Z,7.40
2023-03-11T20:20:43.008Z,7.31
2023-03-11T20:23:10.173Z,7.33
2023-03-11T20:25:41.458Z,7.43
2023-03-11T20:28:08.714Z,7.42
2023-03-11T20:30:37.585Z,7.55
2023-03-11T20:33:04.441Z,7.63
2023-03-11T20:35:31.202Z,7.68
2023-03-11T20:37:59.310Z,7.74
2023-03-11T20:40:26.158Z,7.79
2023-03-11T20:42:52.957Z,7.83
2023-03-11T20:45:22.527Z,7.84
2023-03-11T20:47:50.425Z,7.85
2023-03-11T20:50:17.577Z,7.82
2023-03-11T20:52:44.718Z,7.79
2023-03-11T20:55:12.557Z,7.70
2023-03-11T20:57:39.820Z,7.52
2023-03-11T21:00:11.274Z,7.26
2023-03-11T21:02:42.856Z,7.26
2023-03-11T21:05:11.379Z,7.20
2023-03-11T21:07:38.541Z,7.13
2023-03-11T21:10:12.660Z,7.22
2023-03-11T21:12:39.465Z,7.19
2023-03-11T21:15:08.297Z,7.16
2023-03-11T21:17:35.913Z,7.11
2023-03-11T21:20:05.194Z,7.07
2023-03-11T21:22:32.813Z,7.19
2023-03-11T21:24:59.464Z,7.41
2023-03-11T21:27:26.665Z,7.49
2023-03-11T21:29:58.030Z,7.54
2023-03-11T21:32:26.743Z,7.49
2023-03-11T21:34:58.669Z,7.51
2023-03-11T21:37:26.187Z,7.48
2023-03-11T21:39:53.109Z,7.44
2023-03-11T21:42:20.206Z,7.41
2023-03-11T21:44:47.156Z,7.36
2023-03-11T21:47:13.981Z,7.28
2023-03-11T21:49:40.813Z,7.28
2023-03-11T21:52:07.568Z,7.30
2023-03-11T21:54:34.281Z,7.28
2023-03-11T21:57:01.186Z,7.28
2023-03-11T21:59:27.982Z,7.25
2023-03-11T22:01:54.776Z,7.22
2023-03-11T22:04:21.728Z,7.19
2023-03-11T22:06:48.539Z,7.14
2023-03-11T22:09:15.301Z,7.07
2023-03-11T22:11:42.131Z,7.07
2023-03-11T22:14:08.871Z,6.99
2023-03-11T22:16:35.726Z,6.96
2023-03-11T22:19:04.308Z,6.97
2023-03-11T22:21:31.021Z,6.91
2023-03-11T22:23:57.729Z,6.83
2023-03-11T22:26:24.369Z,6.80
2023-03-11T22:28:50.965Z,6.79
2023-03-11T22:31:18.890Z,6.80
2023-03-11T22:33:47.401Z,6.79
2023-03-11T22:36:14.381Z,6.79
2023-03-11T22:38:44.107Z,6.79
2023-03-11T22:41:13.270Z,6.78
2023-03-11T22:43:40.088Z,6.71
2023-03-11T22:46:07.003Z,6.71
2023-03-11T22:48:34.591Z,6.71
2023-03-11T22:51:01.943Z,6.72
2023-03-11T22:53:29.118Z,6.75
2023-03-11T22:55:55.914Z,6.82
2023-03-11T22:58:22.566Z,6.86
2023-03-11T23:00:49.260Z,6.94
2023-03-11T23:03:16.018Z,6.94
2023-03-11T23:05:43.203Z,6.98
2023-03-11T23:08:11.970Z,6.91
2023-03-11T23:10:44.447Z,6.95
2023-03-11T23:13:11.550Z,6.92
2023-03-11T23:15:41.860Z,6.73
2023-03-11T23:18:08.870Z,6.75
2023-03-11T23:20:37.229Z,6.68
2023-03-11T23:23:04.568Z,6.72
2023-03-11T23:25:32.185Z,6.70
2023-03-11T23:28:01.471Z,6.67
2023-03-11T23:30:28.966Z,6.71
2023-03-11T23:32:57.036Z,6.71
2023-03-11T23:35:24.279Z,6.77
2023-03-11T23:37:51.099Z,6.79
2023-03-11T23:40:18.573Z,6.72
2023-03-11T23:42:45.252Z,6.71
2023-03-11T23:45:11.995Z,6.68
2023-03-11T23:47:38.766Z,6.63
2023-03-11T23:50:06.048Z,6.46
2023-03-11T23:52:33.484Z,6.45
2023-03-11T23:55:00.421Z,6.47
2023-03-11T23:57:27.305Z,6.43
2023-03-11T23:59:53.970Z,6.43
